Time;durP1;ratioP1;P1;durP2;ratioP2;P2;SDS_P1;SDS_P2;PMS_P1;PMS_P2;Temp;Humidity;BMP_temperature;BMP_pressure;BME280_temperature;BME280_humidity;BME280_pressure;Samples;Min_cycle;Max_cycle;Signal;HPM_P1;HPM_P2
2021/09/29 00:00:57;;;;;;;4.93;2.13;;;;;;;15.14;100.00;101405.00;1691332;84;21940;-70
2021/09/29 00:03:23;;;;;;;3.70;2.03;;;;;;;15.16;100.00;101409.58;1694674;82;21294;-70
2021/09/29 00:05:51;;;;;;;3.93;2.57;;;;;;;15.40;100.00;101407.11;1720451;81;21221;-72
2021/09/29 00:08:18;;;;;;;4.43;2.60;;;;;;;15.26;100.00;101408.77;1719469;82;21247;-72
2021/09/29 00:10:46;;;;;;;4.90;2.50;;;;;;;15.26;100.00;101408.77;1721428;81;21358;-72
2021/09/29 00:13:16;;;;;;;4.60;2.53;;;;;;;15.12;100.00;101412.27;1716547;82;21769;-72
2021/09/29 00:15:43;;;;;;;3.73;2.57;;;;;;;15.06;100.00;101401.48;1718130;82;21265;-74
2021/09/29 00:18:10;;;;;;;4.77;2.80;;;;;;;15.05;100.00;101409.05;1720896;81;21392;-71
2021/09/29 00:20:37;;;;;;;5.40;2.90;;;;;;;14.94;100.00;101413.45;1725289;82;21413;-72
2021/09/29 00:23:05;;;;;;;3.97;2.70;;;;;;;14.48;100.00;101410.20;1727663;81;21800;-70
2021/09/29 00:25:32;;;;;;;4.30;3.03;;;;;;;14.48;100.00;101410.20;1721867;82;21376;-70
2021/09/29 00:27:59;;;;;;;4.50;2.87;;;;;;;14.55;100.00;101409.33;1726843;81;21204;-73
2021/09/29 00:30:27;;;;;;;4.53;2.97;;;;;;;14.62;100.00;101414.64;1720839;81;21374;-69
2021/09/29 00:32:53;;;;;;;4.53;3.00;;;;;;;14.75;100.00;101417.45;1725118;82;21310;-70
2021/09/29 00:35:20;;;;;;;4.47;3.37;;;;;;;14.61;100.00;101411.70;1726013;81;21899;-71
2021/09/29 00:37:47;;;;;;;5.67;3.20;;;;;;;14.80;100.00;101416.91;1723747;81;21737;-73
2021/09/29 00:40:14;;;;;;;4.93;3.47;;;;;;;14.88;100.00;101419.93;1725943;82;21642;-72
2021/09/29 00:42:41;;;;;;;5.83;3.20;;;;;;;14.75;100.00;101420.08;1726720;82;21847;-71
2021/09/29 00:45:08;;;;;;;6.87;3.33;;;;;;;14.82;100.00;101424.92;1726907;82;21465;-70
2021/09/29 00:47:36;;;;;;;5.50;3.70;;;;;;;14.83;100.00;101425.73;1724615;82;21232;-72
2021/09/29 00:50:05;;;;;;;4.80;3.23;;;;;;;14.79;100.00;101424.47;1724278;82;21252;-71
2021/09/29 00:52:33;;;;;;;5.63;3.63;;;;;;;14.80;100.00;101425.59;1723654;81;22442;-71
2021/09/29 00:55:00;;;;;;;4.80;3.20;;;;;;;14.90;100.00;101432.39;1722859;82;22149;-71
2021/09/29 00:57:26;;;;;;;5.70;3.73;;;;;;;14.77;100.00;101429.08;1726204;81;21359;-71
2021/09/29 00:59:53;;;;;;;5.23;3.70;;;;;;;14.86;100.00;101431.13;1724893;82;21383;-72
2021/09/29 01:02:20;;;;;;;5.30;3.40;;;;;;;14.95;100.00;101430.02;1721305;81;21304;-73
2021/09/29 01:04:47;;;;;;;8.23;4.60;;;;;;;14.81;100.00;101429.87;1724611;81;21474;-71
2021/09/29 01:07:31;;;;;;;6.13;3.80;;;;;;;14.87;100.00;101436.19;1726946;81;21481;-70
2021/09/29 01:10:12;;;;;;;6.37;3.53;;;;;;;14.67;100.00;101439.05;1721493;82;22613;-71
2021/09/29 01:13:08;;;;;;;6.17;4.00;;;;;;;14.74;100.00;101443.39;1658804;82;21428;-70
2021/09/29 01:15:49;;;;;;;6.17;3.90;;;;;;;14.98;100.00;101433.59;1723779;82;21416;-71
2021/09/29 01:18:22;;;;;;;5.53;3.87;;;;;;;14.72;100.00;101437.50;1723829;81;21351;-71
2021/09/29 01:20:53;;;;;;;6.13;3.90;;;;;;;14.86;100.00;101436.38;1722480;81;20915;-72
2021/09/29 01:23:57;;;;;;;5.20;3.60;;;;;;;14.85;100.00;101440.82;1724348;81;22023;-71
2021/09/29 01:26:28;;;;;;;6.80;5.13;;;;;;;14.91;100.00;101447.14;1718406;82;21194;-72
2021/09/29 01:29:06;;;;;;;5.90;3.50;;;;;;;14.88;100.00;101446.18;1725253;82;21307;-73
2021/09/29 01:31:35;;;;;;;6.27;3.70;;;;;;;14.79;100.00;101454.16;1723535;81;21320;-70
2021/09/29 01:34:04;;;;;;;5.17;3.60;;;;;;;14.81;100.00;101453.96;1725541;81;21180;-73
2021/09/29 01:36:31;;;;;;;5.97;3.90;;;;;;;14.49;100.00;101455.95;1720637;82;21717;-71
2021/09/29 01:38:59;;;;;;;4.67;3.30;;;;;;;14.58;100.00;101459.30;1725397;81;21306;-70
2021/09/29 01:41:29;;;;;;;4.77;2.80;;;;;;;14.94;100.00;101452.03;1718358;82;21903;-70
2021/09/29 01:43:57;;;;;;;5.53;3.65;;;;;;;15.03;100.00;101450.42;1720419;81;21264;-70
2021/09/29 01:46:26;;;;;;;5.30;4.00;;;;;;;14.57;100.00;101458.48;1721925;81;21505;-70
2021/09/29 01:49:21;;;;;;;6.20;3.37;;;;;;;14.52;100.00;101458.72;1721736;81;21360;-70
2021/09/29 01:51:49;;;;;;;4.90;3.60;;;;;;;14.54;100.00;101460.16;1722930;81;21323;-74
2021/09/29 01:54:17;;;;;;;6.20;4.20;;;;;;;14.54;100.00;101468.52;1721579;82;21162;-71
2021/09/29 01:56:45;;;;;;;6.50;3.80;;;;;;;14.89;100.00;101464.87;1722794;81;21275;-70
2021/09/29 01:59:11;;;;;;;7.53;4.00;;;;;;;14.82;100.00;101466.92;1721819;81;21235;-70
2021/09/29 02:01:39;;;;;;;5.13;3.27;;;;;;;14.93;100.00;101462.22;1716601;81;21287;-71
2021/09/29 02:04:10;;;;;;;5.53;3.53;;;;;;;15.01;100.00;101468.19;1714559;81;21233;-70
2021/09/29 02:06:44;;;;;;;8.70;4.23;;;;;;;14.71;100.00;101476.56;1679574;84;21331;-71
2021/09/29 02:09:11;;;;;;;5.73;3.60;;;;;;;14.80;100.00;101474.16;1678950;84;21909;-70
2021/09/29 02:11:38;;;;;;;4.80;3.47;;;;;;;14.87;100.00;101478.19;1680039;84;21304;-71
2021/09/29 02:14:06;;;;;;;5.37;4.03;;;;;;;15.06;100.00;101472.88;1679280;83;21268;-70
2021/09/29 02:16:33;;;;;;;6.40;3.50;;;;;;;15.50;100.00;101471.50;1678121;84;21301;-70
2021/09/29 02:19:01;;;;;;;5.20;3.60;;;;;;;15.66;100.00;101473.11;1680337;84;21279;-70
2021/09/29 02:21:28;;;;;;;4.67;3.33;;;;;;;15.91;100.00;101468.78;1679276;84;21206;-69
2021/09/29 02:23:55;;;;;;;7.20;3.40;;;;;;;16.15;100.00;101471.54;1679508;84;21286;-70
2021/09/29 02:26:23;;;;;;;4.63;3.53;;;;;;;16.03;100.00;101474.68;1671888;84;22730;-73
2021/09/29 02:28:49;;;;;;;6.20;3.60;;;;;;;15.81;100.00;101471.23;1680263;84;21397;-69
2021/09/29 02:31:16;;;;;;;5.63;3.27;;;;;;;15.81;100.00;101471.74;1675614;84;21294;-70
2021/09/29 02:33:44;;;;;;;5.17;3.40;;;;;;;16.00;100.00;101472.42;1677803;84;21859;-72
2021/09/29 02:36:10;;;;;;;6.10;3.50;;;;;;;15.99;100.00;101476.06;1653984;84;21277;-72
2021/09/29 02:38:37;;;;;;;6.70;3.93;;;;;;;15.77;100.00;101467.36;1683046;83;21736;-72
2021/09/29 02:41:04;;;;;;;5.50;3.70;;;;;;;15.42;100.00;101477.34;1682244;84;21730;-72
2021/09/29 02:43:31;;;;;;;5.53;3.40;;;;;;;14.21;100.00;101481.92;1683432;84;21273;-72
2021/09/29 02:45:58;;;;;;;6.37;3.93;;;;;;;13.96;100.00;101485.72;1683682;83;21424;-72
2021/09/29 02:48:25;;;;;;;6.93;3.93;;;;;;;13.92;100.00;101480.50;1681404;84;21319;-72
2021/09/29 02:50:52;;;;;;;5.77;3.60;;;;;;;13.85;100.00;101481.19;1682886;84;21250;-72
2021/09/29 02:53:18;;;;;;;5.60;3.63;;;;;;;14.00;100.00;101482.56;1682110;84;21713;-71
2021/09/29 02:55:46;;;;;;;5.33;3.50;;;;;;;14.10;100.00;101483.65;1683374;84;21219;-76
2021/09/29 02:58:13;;;;;;;5.10;3.50;;;;;;;14.39;100.00;101485.52;1682906;83;21627;-71
2021/09/29 03:00:39;;;;;;;5.43;3.30;;;;;;;14.62;100.00;101487.31;1703366;79;21370;-72
2021/09/29 03:03:08;;;;;;;6.50;4.40;;;;;;;14.81;100.00;101488.92;1773810;79;21299;-71
2021/09/29 03:05:35;;;;;;;5.23;3.87;;;;;;;15.13;100.00;101488.23;1773633;79;21364;-75
2021/09/29 03:08:01;;;;;;;5.93;4.10;;;;;;;15.32;100.00;101488.97;1770662;78;21180;-71
2021/09/29 03:10:28;;;;;;;5.40;3.97;;;;;;;15.07;100.00;101494.20;1774252;79;21245;-71
2021/09/29 03:12:55;;;;;;;6.70;3.50;;;;;;;14.80;100.00;101500.41;1773730;79;21293;-72
2021/09/29 03:15:21;;;;;;;5.40;4.07;;;;;;;15.22;100.00;101501.56;1775846;78;21675;-71
2021/09/29 03:17:48;;;;;;;6.57;3.57;;;;;;;15.28;100.00;101499.53;1781668;79;21288;-75
2021/09/29 03:20:15;;;;;;;5.87;3.60;;;;;;;14.96;100.00;101507.28;1775720;79;21198;-71
2021/09/29 03:22:41;;;;;;;4.77;3.37;;;;;;;14.73;100.00;101511.30;1774385;79;22438;-69
2021/09/29 03:25:09;;;;;;;5.50;4.07;;;;;;;14.62;100.00;101508.30;1776368;78;21134;-70
2021/09/29 03:27:35;;;;;;;6.70;4.40;;;;;;;14.80;100.00;101511.41;1778895;78;21413;-70
2021/09/29 03:30:02;;;;;;;7.70;4.03;;;;;;;14.89;100.00;101513.44;1777439;79;21135;-77
2021/09/29 03:32:29;;;;;;;6.87;3.90;;;;;;;14.97;100.00;101513.38;1778187;79;21076;-71
2021/09/29 03:34:57;;;;;;;5.83;4.20;;;;;;;14.74;100.00;101524.77;1777425;79;21799;-70
2021/09/29 03:37:23;;;;;;;5.53;4.00;;;;;;;14.57;100.00;101512.78;1777208;79;21280;-70
2021/09/29 03:39:50;;;;;;;5.07;3.50;;;;;;;14.44;100.00;101514.67;1775088;78;21420;-69
2021/09/29 03:42:17;;;;;;;5.63;3.10;;;;;;;14.25;100.00;101525.16;1780310;79;21746;-73
2021/09/29 03:44:43;;;;;;;5.97;3.87;;;;;;;14.34;100.00;101526.72;1768784;78;21277;-68
2021/09/29 03:47:10;;;;;;;5.90;4.33;;;;;;;14.66;100.00;101521.37;1772989;78;21252;-72
2021/09/29 03:49:37;;;;;;;6.37;4.23;;;;;;;14.80;100.00;101521.41;1778992;78;21350;-70
2021/09/29 03:52:06;;;;;;;7.70;4.40;;;;;;;14.74;100.00;101523.45;1775921;79;21788;-72
2021/09/29 03:54:33;;;;;;;6.90;4.50;;;;;;;14.48;100.00;101528.26;1773822;79;21264;-73
2021/09/29 03:57:00;;;;;;;13.93;4.60;;;;;;;14.76;100.00;101525.37;1777195;79;21574;-70
2021/09/29 03:59:28;;;;;;;6.60;4.20;;;;;;;14.90;100.00;101528.22;1777806;79;21713;-75
2021/09/29 04:01:54;;;;;;;5.30;3.97;;;;;;;14.82;100.00;101528.61;1758911;79;21289;-71
2021/09/29 04:04:21;;;;;;;6.63;4.37;;;;;;;14.80;100.00;101527.97;1762031;80;21774;-71
2021/09/29 04:06:47;;;;;;;6.00;4.13;;;;;;;14.78;100.00;101533.91;1768441;80;21385;-70
2021/09/29 04:09:14;;;;;;;6.27;4.20;;;;;;;14.87;100.00;101530.70;1742962;80;21287;-71
2021/09/29 04:11:42;;;;;;;5.17;3.77;;;;;;;14.83;100.00;101533.36;1746500;80;21136;-72
2021/09/29 04:14:08;;;;;;;6.87;3.87;;;;;;;15.04;100.00;101532.66;1745647;80;21514;-73
2021/09/29 04:16:35;;;;;;;5.40;3.80;;;;;;;15.11;100.00;101528.80;1747854;80;21236;-69
2021/09/29 04:19:01;;;;;;;5.10;3.83;;;;;;;15.31;100.00;101532.52;1753285;80;21674;-68
2021/09/29 04:21:28;;;;;;;5.87;3.80;;;;;;;15.47;100.00;101527.55;1746440;80;21266;-69
2021/09/29 04:23:55;;;;;;;5.20;3.73;;;;;;;15.68;100.00;101528.95;1759257;80;21793;-76
2021/09/29 04:26:21;;;;;;;9.57;4.50;;;;;;;15.67;100.00;101527.30;1747911;80;21112;-70
2021/09/29 04:28:49;;;;;;;6.60;4.10;;;;;;;15.55;100.00;101526.94;1697778;82;21914;-70
2021/09/29 04:31:16;;;;;;;7.80;4.10;;;;;;;15.51;100.00;101530.12;1702004;81;21316;-69
2021/09/29 04:33:42;;;;;;;5.37;4.00;;;;;;;15.65;100.00;101529.78;1688557;82;21309;-70
2021/09/29 04:36:09;;;;;;;5.33;3.80;;;;;;;15.70;100.00;101533.50;1691257;83;21454;-73
2021/09/29 04:38:35;;;;;;;9.80;4.90;;;;;;;15.84;100.00;101528.41;1691973;82;21272;-69
2021/09/29 04:41:01;;;;;;;5.80;3.80;;;;;;;15.96;100.00;101532.98;1684537;83;21157;-69
2021/09/29 04:43:29;;;;;;;5.93;3.90;;;;;;;15.75;100.00;101541.64;1695138;83;21842;-71
2021/09/29 04:45:55;;;;;;;5.87;3.90;;;;;;;15.64;100.00;101542.09;1684381;83;21239;-70
2021/09/29 04:48:21;;;;;;;6.17;4.17;;;;;;;15.74;100.00;101541.84;1700413;83;21287;-78
2021/09/29 04:50:48;;;;;;;6.13;4.03;;;;;;;16.01;100.00;101548.19;1683481;83;21749;-69
2021/09/29 04:53:14;;;;;;;5.23;3.80;;;;;;;16.29;100.00;101547.77;1697845;83;21242;-72
2021/09/29 04:55:41;;;;;;;5.93;3.90;;;;;;;16.34;100.00;101548.50;1687454;83;21813;-71
2021/09/29 04:58:09;;;;;;;5.87;4.43;;;;;;;16.10;100.00;101558.92;1684445;83;21284;-75
2021/09/29 05:00:36;;;;;;;6.30;4.77;;;;;;;15.89;100.00;101553.62;1699008;83;21822;-70
2021/09/29 05:03:03;;;;;;;6.53;3.57;;;;;;;15.64;100.00;101567.06;1722442;81;21953;-70
2021/09/29 05:05:34;;;;;;;6.90;4.73;;;;;;;15.70;100.00;101570.31;1713020;81;21374;-70
2021/09/29 05:08:01;;;;;;;5.73;3.60;;;;;;;15.90;100.00;101563.14;1717121;81;21299;-71
2021/09/29 05:10:45;;;;;;;6.47;4.27;;;;;;;15.69;100.00;101575.26;1722477;81;21380;-71
2021/09/29 05:13:13;;;;;;;5.87;3.53;;;;;;;16.01;100.00;101573.98;1725749;82;21435;-68
2021/09/29 05:15:39;;;;;;;6.67;3.47;;;;;;;16.01;100.00;101573.98;1722372;81;21193;-71
2021/09/29 05:18:08;;;;;;;5.57;3.60;;;;;;;16.13;100.00;101584.02;1722244;81;21729;-77
2021/09/29 05:20:34;;;;;;;5.47;4.07;;;;;;;16.28;100.00;101578.19;1725329;81;21918;-68
2021/09/29 05:23:01;;;;;;;5.77;4.03;;;;;;;16.36;100.00;101581.20;1725124;82;21297;-67
2021/09/29 05:25:27;;;;;;;7.27;3.67;;;;;;;16.18;100.00;101581.16;1726087;81;21279;-67
2021/09/29 05:27:55;;;;;;;6.13;3.33;;;;;;;16.32;100.00;101582.58;1717493;81;21777;-73
2021/09/29 05:30:22;;;;;;;6.03;3.70;;;;;;;16.32;100.00;101590.47;1676657;82;21600;-73
2021/09/29 05:32:48;;;;;;;5.27;3.70;;;;;;;15.76;100.00;101594.56;1720218;81;21474;-67
2021/09/29 05:35:14;;;;;;;6.83;3.67;;;;;;;15.92;100.00;101596.66;1725999;81;21899;-68
2021/09/29 05:37:41;;;;;;;7.97;3.73;;;;;;;16.13;100.00;101601.11;1722662;81;21334;-68
2021/09/29 05:40:10;;;;;;;6.67;3.80;;;;;;;16.10;100.00;101599.69;1724986;81;21306;-74
2021/09/29 05:42:37;;;;;;;6.67;3.77;;;;;;;16.36;100.00;101595.67;1725010;81;21521;-67
2021/09/29 05:45:05;;;;;;;5.93;4.20;;;;;;;16.47;100.00;101600.43;1725962;81;21248;-67
2021/09/29 05:47:32;;;;;;;6.30;3.90;;;;;;;16.59;100.00;101600.73;1721518;81;21379;-69
2021/09/29 05:49:58;;;;;;;4.67;3.40;;;;;;;16.91;100.00;101592.32;1725327;81;21883;-73
2021/09/29 05:52:25;;;;;;;5.67;4.33;;;;;;;16.18;100.00;101604.02;1725933;81;21263;-71
2021/09/29 05:54:51;;;;;;;5.43;3.77;;;;;;;16.18;100.00;101604.02;1712249;81;21569;-68
2021/09/29 05:57:18;;;;;;;5.87;3.80;;;;;;;16.30;100.00;101605.14;1722829;81;21371;-69
2021/09/29 05:59:46;;;;;;;4.60;3.50;;;;;;;16.43;100.00;101609.70;1716900;81;21335;-70
2021/09/29 06:02:13;;;;;;;5.87;3.60;;;;;;;16.28;100.00;101605.82;1722604;81;21336;-73
2021/09/29 06:04:41;;;;;;;6.07;3.53;;;;;;;16.46;100.00;101612.78;1700220;82;21269;-70
2021/09/29 06:07:10;;;;;;;6.13;3.50;;;;;;;16.55;100.00;101610.83;1703207;83;21577;-69
2021/09/29 06:09:39;;;;;;;5.93;4.13;;;;;;;16.65;100.00;101615.27;1697756;83;21376;-70
2021/09/29 06:12:08;;;;;;;6.43;4.40;;;;;;;16.64;100.00;101616.28;1707813;82;21550;-72
2021/09/29 06:14:36;;;;;;;5.67;3.98;;;;;;;16.29;100.00;101620.13;1701822;81;21453;-71
2021/09/29 06:17:21;;;;;;;6.43;3.80;;;;;;;16.10;100.00;101615.95;1698532;83;21074;-67
2021/09/29 06:19:43;;;;;;;5.23;4.10;;;;;;;16.12;100.00;101618.72;1695994;83;21309;-67
2021/09/29 06:22:11;;;;;;;10.30;4.30;;;;;;;16.17;100.00;101621.59;1701612;81;21530;-69
2021/09/29 06:24:38;;;;;;;6.47;3.90;;;;;;;16.29;100.00;101621.44;1701474;82;21835;-72
2021/09/29 06:27:05;;;;;;;4.93;3.57;;;;;;;16.40;100.00;101635.08;1711840;81;21587;-68
2021/09/29 06:29:31;;;;;;;6.40;4.30;;;;;;;16.40;100.00;101635.08;1711210;83;21425;-67
2021/09/29 06:31:58;;;;;;;5.57;4.03;;;;;;;16.52;100.00;101631.78;1700704;83;21333;-68
2021/09/29 06:34:25;;;;;;;6.07;3.80;;;;;;;16.52;100.00;101631.78;1710018;83;21441;-72
2021/09/29 06:36:53;;;;;;;7.17;3.70;;;;;;;16.08;100.00;101629.30;1710149;81;21429;-66
2021/09/29 06:39:20;;;;;;;6.67;4.30;;;;;;;16.08;100.00;101629.30;1711251;81;21578;-67
2021/09/29 06:41:47;;;;;;;8.57;4.20;;;;;;;16.46;100.00;101635.16;1710687;81;21381;-69
2021/09/29 06:44:14;;;;;;;5.43;2.97;;;;;;;16.46;100.00;101635.16;1705716;83;21422;-74
2021/09/29 06:46:40;;;;;;;4.93;3.40;;;;;;;16.72;100.00;101622.73;1691285;83;21963;-70
2021/09/29 06:49:08;;;;;;;6.27;4.30;;;;;;;16.85;98.79;101631.27;1700995;83;21420;-70
2021/09/29 06:51:35;;;;;;;5.80;3.77;;;;;;;17.05;97.56;101634.06;1711287;81;21843;-70
2021/09/29 06:54:02;;;;;;;7.77;3.90;;;;;;;17.22;92.87;101634.57;1709638;81;22039;-71
2021/09/29 06:56:29;;;;;;;4.50;3.40;;;;;;;17.07;94.59;101633.36;1702568;83;21385;-71
2021/09/29 06:58:55;;;;;;;5.03;3.70;;;;;;;17.17;93.33;101635.16;1703726;81;22248;-75
2021/09/29 07:01:22;;;;;;;6.07;4.27;;;;;;;17.17;93.33;101635.16;1706742;83;21681;-71
2021/09/29 07:03:49;;;;;;;6.77;4.30;;;;;;;17.71;91.69;101639.70;1716841;82;21793;-71
2021/09/29 07:06:17;;;;;;;5.60;3.43;;;;;;;18.06;84.81;101625.14;1718474;81;22337;-75
2021/09/29 07:08:44;;;;;;;8.83;3.70;;;;;;;18.24;80.22;101629.86;1719211;82;21784;-71
2021/09/29 07:11:15;;;;;;;4.40;3.07;;;;;;;18.32;80.88;101631.50;1716708;81;21734;-75
2021/09/29 07:13:42;;;;;;;4.47;3.33;;;;;;;18.56;74.48;101632.26;1708024;82;21066;-69
2021/09/29 07:16:09;;;;;;;5.40;3.60;;;;;;;18.53;72.38;101626.56;1724361;82;21133;-72
2021/09/29 07:18:38;;;;;;;6.40;3.40;;;;;;;18.56;72.43;101629.62;1714528;82;21685;-70
2021/09/29 07:21:06;;;;;;;6.33;2.97;;;;;;;18.96;69.99;101623.02;1710218;81;21122;-71
2021/09/29 07:23:33;;;;;;;6.30;3.50;;;;;;;19.01;63.96;101624.53;1716722;81;21131;-70
2021/09/29 07:25:59;;;;;;;6.23;4.37;;;;;;;19.03;63.76;101625.16;1721115;81;21000;-70
2021/09/29 07:28:26;;;;;;;4.37;3.20;;;;;;;19.02;63.16;101622.22;1713577;81;21150;-70
2021/09/29 07:30:53;;;;;;;5.43;2.90;;;;;;;19.07;63.39;101620.27;1710848;81;21560;-72
2021/09/29 07:33:19;;;;;;;4.80;3.17;;;;;;;19.48;60.78;101614.69;1720333;81;20993;-70
2021/09/29 07:35:46;;;;;;;4.53;3.03;;;;;;;19.83;59.75;101617.01;1716262;82;21545;-70
2021/09/29 07:38:13;;;;;;;6.03;3.30;;;;;;;20.12;57.47;101617.77;1723508;82;21009;-70
2021/09/29 07:40:41;;;;;;;4.17;2.60;;;;;;;20.16;53.85;101615.00;1701242;82;21471;-69
2021/09/29 07:43:07;;;;;;;4.77;2.80;;;;;;;19.74;54.52;101616.97;1714152;81;21007;-70
2021/09/29 07:45:34;;;;;;;4.83;2.50;;;;;;;19.73;54.59;101615.31;1702832;81;21146;-70
2021/09/29 07:48:00;;;;;;;4.37;2.47;;;;;;;19.67;53.11;101613.02;1707943;82;21017;-68
2021/09/29 07:50:27;;;;;;;5.53;2.87;;;;;;;19.97;53.12;101620.41;1721564;81;21039;-75
2021/09/29 07:52:55;;;;;;;6.53;2.90;;;;;;;20.30;52.26;101608.27;1712049;81;21178;-74
2021/09/29 07:55:21;;;;;;;3.67;2.20;;;;;;;20.71;50.93;101602.48;1716174;81;21000;-68
2021/09/29 07:57:48;;;;;;;4.00;2.47;;;;;;;21.23;49.34;101609.63;1713525;81;20904;-70
2021/09/29 08:00:16;;;;;;;4.10;2.33;;;;;;;21.50;47.45;101614.14;1716404;81;21544;-75
2021/09/29 08:02:43;;;;;;;6.97;3.00;;;;;;;22.08;46.55;101602.95;1713906;81;21600;-69
2021/09/29 08:05:10;;;;;;;4.87;2.50;;;;;;;22.61;46.20;101601.36;1714553;81;21130;-74
2021/09/29 08:07:38;;;;;;;3.83;2.50;;;;;;;23.12;43.06;101599.87;1784490;78;21125;-69
2021/09/29 08:10:07;;;;;;;5.03;3.73;;;;;;;22.96;41.42;101605.39;1776631;78;21565;-70
2021/09/29 08:12:34;;;;;;;3.93;2.33;;;;;;;22.86;41.27;101598.48;1782487;78;21061;-71
2021/09/29 08:15:11;;;;;;;7.27;3.50;;;;;;;22.81;41.51;101606.35;1780022;78;21629;-73
2021/09/29 08:17:33;;;;;;;9.38;5.67;;;;;;;23.11;41.16;101600.09;1782283;79;22238;-71
2021/09/29 08:19:59;;;;;;;10.80;6.13;;;;;;;23.42;40.56;101597.56;1786725;79;20937;-71
2021/09/29 08:22:26;;;;;;;8.47;4.77;;;;;;;23.28;39.74;101591.16;1784115;78;21006;-76
2021/09/29 08:25:10;;;;;;;6.90;4.40;;;;;;;22.84;40.18;101604.53;1783444;79;21062;-77
2021/09/29 08:32:25;;;;;;;12.53;6.40;;;;;;;21.67;41.76;101610.88;1781348;78;21107;-76
2021/09/29 08:37:25;;;;;;;9.47;4.43;;;;;;;21.02;43.70;101604.75;1777938;78;20963;-72
2021/09/29 08:40:42;;;;;;;5.47;2.87;;;;;;;20.95;44.75;101604.83;1778389;78;21054;-69
2021/09/29 08:42:29;;;;;;;12.63;5.67;;;;;;;21.02;43.90;101603.42;1713252;81;21131;-68
2021/09/29 08:45:02;;;;;;;7.53;4.10;;;;;;;20.93;43.61;101598.92;1737753;80;21083;-75
2021/09/29 08:47:33;;;;;;;7.70;3.93;;;;;;;20.95;44.12;101606.16;1738205;81;21977;-69
2021/09/29 09:17:00;;;;;;;4.77;2.80;;;;;;;21.00;42.12;101610.28;1734732;80;20940;-74
2021/09/29 09:19:29;;;;;;;8.03;3.30;;;;;;;20.64;42.54;101609.16;1739385;80;21001;-69
2021/09/29 09:21:59;;;;;;;5.93;2.80;;;;;;;20.47;43.27;101612.03;1740287;80;21584;-73
2021/09/29 09:24:28;;;;;;;;;;;;;;;20.42;44.36;101606.58;1791073;78;21058;-71
2021/09/29 09:27:06;;;;;;;5.57;2.67;;;;;;;20.56;44.33;101618.70;1788887;78;20147;-73
2021/09/29 09:29:47;;;;;;;6.33;2.43;;;;;;;20.72;44.05;101612.08;1790106;78;21831;-71
2021/09/29 09:32:16;;;;;;;4.87;2.55;;;;;;;20.78;43.67;101615.16;1789318;78;22243;-70
2021/09/29 09:34:42;;;;;;;4.13;2.80;;;;;;;20.75;43.59;101610.81;1777182;78;21149;-73
2021/09/29 09:37:13;;;;;;;4.80;2.70;;;;;;;20.60;43.26;101613.27;1786187;78;21085;-74
2021/09/29 09:39:40;;;;;;;5.45;3.12;;;;;;;20.34;43.36;101606.33;1778311;78;20969;-71
2021/09/29 09:42:08;;;;;;;4.57;2.90;;;;;;;20.27;43.41;101604.76;1786831;78;21493;-69
2021/09/29 09:44:38;;;;;;;5.03;3.10;;;;;;;20.20;43.53;101603.98;1787755;78;21013;-67
2021/09/29 09:47:15;;;;;;;4.80;2.60;;;;;;;20.21;42.91;101608.25;1786575;78;21757;-69
2021/09/29 09:49:55;;;;;;;7.33;3.27;;;;;;;20.26;43.21;101602.59;1786851;78;21281;-67
2021/09/29 09:52:33;;;;;;;5.30;3.20;;;;;;;19.93;43.49;101608.92;1787824;78;21525;-73
2021/09/29 09:55:14;;;;;;;5.77;3.30;;;;;;;19.76;44.29;101603.80;1787008;78;21135;-70
2021/09/29 09:57:43;;;;;;;5.53;3.30;;;;;;;19.63;45.09;101609.98;1770464;78;21678;-68
2021/09/29 10:00:15;;;;;;;6.57;4.13;;;;;;;19.77;45.58;101602.77;1781460;79;21384;-68
2021/09/29 10:02:47;;;;;;;5.10;3.57;;;;;;;19.86;45.84;101608.14;1784686;78;21043;-67
2021/09/29 10:05:18;;;;;;;4.03;3.00;;;;;;;20.10;45.58;101611.06;1773500;79;21075;-71
2021/09/29 10:07:45;;;;;;;6.63;3.90;;;;;;;20.12;45.42;101608.51;1773061;79;20935;-71
2021/09/29 10:10:23;;;;;;;6.00;3.73;;;;;;;20.12;44.98;101605.86;1771802;78;21114;-71
2021/09/29 10:27:13;;;;;;;5.50;3.70;;;;;;;20.69;44.34;101607.72;1773774;79;22648;-70
2021/09/29 10:29:45;;;;;;;;;;;;;;;20.67;44.28;101596.52;1774046;79;20915;-70
2021/09/29 10:32:18;;;;;;;;;;;;;;;20.86;44.21;101599.50;1772870;79;20190;-70
2021/09/29 10:35:09;;;;;;;4.20;2.83;;;;;;;20.65;42.60;101605.50;1774097;78;20461;-72
2021/09/29 10:40:36;;;;;;;4.77;3.13;;;;;;;20.78;42.17;101612.52;1778440;79;21106;-69
2021/09/29 10:43:04;;;;;;;4.90;3.20;;;;;;;20.28;42.75;101603.72;1777327;78;21034;-72
2021/09/29 10:46:00;;;;;;;4.63;2.80;;;;;;;20.71;43.09;101604.33;1775151;79;20974;-69
2021/09/29 10:51:06;;;;;;;5.03;3.00;;;;;;;21.09;42.44;101591.72;1775962;79;20924;-70
2021/09/29 11:07:06;;;;;;;5.63;4.07;;;;;;;21.40;41.17;101605.89;1724671;81;22607;-69
2021/09/29 11:09:44;;;;;;;4.97;3.70;;;;;;;21.62;41.05;101607.05;1726149;81;21052;-70
2021/09/29 11:12:14;;;;;;;8.53;4.23;;;;;;;21.65;41.26;101612.96;1728245;81;21572;-73
2021/09/29 11:33:33;;;;;;;7.23;4.17;;;;;;;20.09;45.00;101609.44;1730849;82;21840;-71
2021/09/29 11:50:18;;;;;;;4.47;3.10;;;;;;;20.17;45.01;101602.56;1712674;81;21063;-70
2021/09/29 12:14:17;;;;;;;6.73;4.27;;;;;;;20.30;42.14;101604.30;1711102;81;21166;-69
2021/09/29 12:16:45;;;;;;;5.40;4.17;;;;;;;20.26;42.39;101603.11;1703250;81;21545;-68
2021/09/29 12:19:31;;;;;;;6.43;3.80;;;;;;;20.28;42.39;101605.05;1716093;81;21165;-68
2021/09/29 12:21:57;;;;;;;4.97;2.83;;;;;;;20.21;42.08;101601.62;1706990;81;21150;-71
2021/09/29 12:24:30;;;;;;;5.50;3.20;;;;;;;20.10;41.58;101597.83;1721954;81;21492;-69
2021/09/29 12:26:58;;;;;;;4.10;2.67;;;;;;;19.79;42.11;101610.52;1717831;81;21124;-71
2021/09/29 12:29:36;;;;;;;3.93;2.67;;;;;;;19.66;42.22;101606.08;1725506;80;21457;-70
2021/09/29 12:37:53;;;;;;;6.60;3.07;;;;;;;19.39;42.69;101607.47;1721057;81;21571;-71
2021/09/29 12:40:19;;;;;;;7.50;4.40;;;;;;;19.42;42.76;101606.25;1721783;81;21231;-76
2021/09/29 12:42:48;;;;;;;7.47;5.07;;;;;;;19.19;42.93;101607.53;1726347;81;20963;-71
2021/09/29 12:45:14;;;;;;;8.03;4.90;;;;;;;19.25;43.21;101607.23;1688708;81;21667;-71
2021/09/29 12:47:44;;;;;;;5.93;4.37;;;;;;;19.09;43.50;101610.29;1633823;83;20940;-71
2021/09/29 12:50:16;;;;;;;7.80;4.80;;;;;;;18.79;43.52;101607.28;1708606;81;21084;-71
2021/09/29 12:52:48;;;;;;;9.40;4.03;;;;;;;18.46;43.95;101615.99;1718265;82;21162;-71
2021/09/29 12:55:09;;;;;;;4.63;3.60;;;;;;;18.34;44.16;101612.33;1723963;81;21081;-69
2021/09/29 12:57:36;;;;;;;9.53;5.10;;;;;;;18.28;44.31;101621.04;1719362;81;20928;-69
2021/09/29 13:00:04;;;;;;;7.33;4.60;;;;;;;18.11;44.77;101621.42;1718771;81;21570;-71
2021/09/29 13:02:32;;;;;;;7.27;4.53;;;;;;;18.06;45.07;101617.73;1712954;81;21404;-73
2021/09/29 13:04:58;;;;;;;6.50;3.90;;;;;;;18.12;44.40;101621.72;1716333;81;21119;-70
2021/09/29 13:07:25;;;;;;;5.77;2.77;;;;;;;18.22;43.83;101627.44;1732889;80;21477;-70
2021/09/29 13:09:54;;;;;;;6.07;2.90;;;;;;;18.16;43.41;101623.45;1723326;81;21571;-70
2021/09/29 13:12:20;;;;;;;4.83;3.30;;;;;;;18.08;43.79;101623.13;1731017;81;20953;-81
2021/09/29 13:14:47;;;;;;;5.07;3.13;;;;;;;17.98;44.02;101627.45;1727826;82;21650;-70
2021/09/29 13:17:13;;;;;;;4.20;2.83;;;;;;;17.87;43.88;101625.39;1728589;81;21146;-71
2021/09/29 13:19:52;;;;;;;5.47;3.50;;;;;;;17.78;44.27;101625.77;1715958;81;21018;-70
2021/09/29 13:22:20;;;;;;;4.27;3.30;;;;;;;17.81;44.48;101633.30;1730260;81;21051;-72
2021/09/29 13:35:16;;;;;;;8.73;5.57;;;;;;;17.73;45.44;101635.06;1633384;85;21795;-70
2021/09/29 13:37:37;;;;;;;9.27;6.00;;;;;;;17.95;45.46;101633.63;1715770;81;22146;-67
2021/09/29 13:40:06;;;;;;;8.30;6.20;;;;;;;17.96;45.74;101636.60;1722337;81;22255;-74
2021/09/29 13:42:32;;;;;;;8.97;6.70;;;;;;;18.11;45.32;101631.98;1716122;81;21753;-68
2021/09/29 13:45:00;;;;;;;10.23;5.53;;;;;;;18.19;45.43;101630.98;1722767;81;37880;-69
2021/09/29 13:47:26;;;;;;;6.53;4.23;;;;;;;18.15;45.06;101634.52;1727524;81;21687;-68